Hancock County-Bar Harbor Airport Bar Harbor US
ICAO: KBHB
IATA: BHB
Category: Medium
Scheduled Services: Yes

Elevation: 83 ft
TransAlt. 18000 ft.

Airport Communications:
BANGOR APP/DEP:124.5
AWOS 3:118.025
CLNC DEL:119.9
CTAF/UNICOM:123

KBHB Zoom In..

Runways:

(A) RW 04 length 5200 ft width 100 ft
---- / hdg 44

(B) RW 17 length 3253 ft width 75 ft
---- / hdg 169

(C) RW 22 length 5200 ft width 100 ft
ILS 108.30 / hdg 224

(D) RW 35 length 3253 ft width 75 ft
---- / hdg 349

Location; KBHB
Day. 20 / Time. 02.56 Zulu
* Altimeter: 30.11
* Temperature: 15° c. 59°f.
* Wind from: 190° Speed 04 kn.
Dewpoint: 12° c.
Visibility: 10 Statute Miles.
Clouds: Clear (automated report).

KBHB 200256Z AUTO 19004KT 10SM CLR 15/12 A3011 RMK AO2 SLP200 T01500122 51017 $


Wind From 190°
Speed 04 kn.

 
 
jpsmedia.com for Web Design worldairports.se 2018   terms of use